createdAt,value
2019-06-26T00:03:55.961Z,26.30
2019-06-26T00:08:59.708Z,26.30
2019-06-26T00:14:03.527Z,26.30
2019-06-26T00:19:07.374Z,26.30
2019-06-26T00:24:11.151Z,26.30
2019-06-26T00:29:15.107Z,26.20
2019-06-26T00:34:18.848Z,26.10
2019-06-26T00:39:22.622Z,26.10
2019-06-26T00:44:26.334Z,26.10
2019-06-26T00:49:30.026Z,26.00
2019-06-26T00:54:33.722Z,25.90
2019-06-26T00:59:37.466Z,25.90
2019-06-26T01:04:43.714Z,25.70
2019-06-26T01:09:47.541Z,25.70
2019-06-26T01:14:51.236Z,25.60
2019-06-26T01:19:55.309Z,25.40
2019-06-26T01:24:59.064Z,25.30
2019-06-26T01:30:02.829Z,25.20
2019-06-26T01:35:06.785Z,25.10
2019-06-26T01:40:11.082Z,25.20
2019-06-26T01:45:15.165Z,25.10
2019-06-26T01:50:18.951Z,25.00
2019-06-26T01:55:22.852Z,24.90
2019-06-26T02:00:27.013Z,25.10
2019-06-26T02:05:30.843Z,25.10
2019-06-26T02:10:34.570Z,25.00
2019-06-26T02:15:38.604Z,25.00
2019-06-26T02:20:42.594Z,25.10
2019-06-26T02:25:46.332Z,24.90
2019-06-26T02:30:50.155Z,24.80
2019-06-26T02:35:53.902Z,24.80
2019-06-26T02:40:58.098Z,24.60
2019-06-26T02:46:01.887Z,24.60
2019-06-26T02:51:05.770Z,24.50
2019-06-26T02:56:09.571Z,24.50
2019-06-26T03:01:13.345Z,24.50
2019-06-26T03:06:17.022Z,24.40
2019-06-26T03:11:20.961Z,24.40
2019-06-26T03:16:24.696Z,24.30
2019-06-26T03:21:28.438Z,24.20
2019-06-26T03:26:32.174Z,24.30
2019-06-26T03:31:36.091Z,24.40
2019-06-26T03:36:39.889Z,24.40
2019-06-26T03:41:43.605Z,24.40
2019-06-26T03:46:47.554Z,24.50
2019-06-26T03:51:51.278Z,24.40
2019-06-26T03:56:55.026Z,24.60
2019-06-26T04:01:59.013Z,24.60
2019-06-26T04:07:02.732Z,24.70
2019-06-26T04:12:06.510Z,24.80
2019-06-26T04:17:10.274Z,24.80
2019-06-26T04:22:13.973Z,24.90
2019-06-26T04:27:17.766Z,24.90
2019-06-26T04:32:21.526Z,25.00
2019-06-26T04:37:25.461Z,25.20
2019-06-26T04:42:29.252Z,25.20
2019-06-26T04:47:32.934Z,25.20
2019-06-26T04:52:36.642Z,25.50
2019-06-26T04:57:40.443Z,25.70
2019-06-26T05:02:44.169Z,25.90
2019-06-26T05:07:47.929Z,25.90
2019-06-26T05:12:51.637Z,26.00
2019-06-26T05:17:55.310Z,26.10
2019-06-26T05:22:58.996Z,26.20
2019-06-26T05:28:02.702Z,26.40
2019-06-26T05:33:06.698Z,26.50
2019-06-26T05:38:10.421Z,26.60
2019-06-26T05:43:14.242Z,26.90
2019-06-26T05:48:18.165Z,27.00
2019-06-26T05:53:21.882Z,27.10
2019-06-26T05:58:25.605Z,27.00
2019-06-26T06:03:29.331Z,27.20
2019-06-26T06:08:33.070Z,27.40
2019-06-26T06:13:37.240Z,27.60
2019-06-26T06:18:40.956Z,27.90
2019-06-26T06:23:44.652Z,28.00
2019-06-26T06:28:48.385Z,28.00
2019-06-26T06:33:52.152Z,28.30
2019-06-26T06:38:55.859Z,28.50
2019-06-26T06:43:59.626Z,28.70
2019-06-26T06:49:03.389Z,28.70
2019-06-26T06:54:07.573Z,28.90
2019-06-26T06:59:11.258Z,29.10
2019-06-26T07:04:15.192Z,29.40
2019-06-26T07:09:18.856Z,29.50
2019-06-26T07:14:22.555Z,29.70
2019-06-26T07:19:26.265Z,29.80
2019-06-26T07:24:29.967Z,30.10
2019-06-26T07:29:33.675Z,30.50
2019-06-26T07:34:37.516Z,30.70
2019-06-26T07:39:41.264Z,31.00
2019-06-26T07:44:45.005Z,31.30
2019-06-26T07:49:48.790Z,31.50
2019-06-26T07:54:52.630Z,31.80
2019-06-26T07:59:56.340Z,32.00
2019-06-26T08:05:00.018Z,32.00
2019-06-26T08:10:04.405Z,32.30
2019-06-26T08:15:08.637Z,32.50
2019-06-26T08:20:14.617Z,32.80
2019-06-26T08:25:20.211Z,33.10
2019-06-26T08:30:24.654Z,33.40
2019-06-26T08:35:28.579Z,33.60
2019-06-26T08:40:32.543Z,33.90
2019-06-26T08:45:36.328Z,34.00
2019-06-26T08:50:40.148Z,34.20
2019-06-26T08:55:43.932Z,34.20
2019-06-26T09:00:47.640Z,34.50
2019-06-26T09:05:51.350Z,34.60
2019-06-26T09:10:55.089Z,34.70
2019-06-26T09:15:58.738Z,34.80
2019-06-26T09:21:02.894Z,35.30
2019-06-26T09:26:06.773Z,36.50
2019-06-26T09:31:10.767Z,37.60
2019-06-26T09:36:14.545Z,37.90
2019-06-26T09:41:18.233Z,40.40
2019-06-26T09:46:22.078Z,41.30
2019-06-26T09:51:26.069Z,41.10
2019-06-26T09:56:29.724Z,42.20
2019-06-26T10:01:33.790Z,43.40
2019-06-26T10:06:37.480Z,43.40
2019-06-26T10:11:41.389Z,43.80
2019-06-26T10:16:45.085Z,44.10
2019-06-26T10:21:48.779Z,44.70
2019-06-26T10:26:52.709Z,45.40
2019-06-26T10:31:56.402Z,46.20
2019-06-26T10:37:01.519Z,46.50
2019-06-26T10:42:05.433Z,46.70
2019-06-26T10:47:09.336Z,47.40
2019-06-26T10:52:13.151Z,47.40
2019-06-26T10:57:17.088Z,48.30
2019-06-26T11:02:21.116Z,49.30
2019-06-26T11:07:24.914Z,49.30
2019-06-26T11:12:28.669Z,49.60
2019-06-26T11:17:32.362Z,47.80
2019-06-26T11:22:36.257Z,48.40
2019-06-26T11:27:40.020Z,48.20
2019-06-26T11:32:44.065Z,48.10
2019-06-26T11:37:47.782Z,49.60
2019-06-26T11:42:51.478Z,49.60
2019-06-26T11:47:55.262Z,49.30
2019-06-26T11:52:59.765Z,47.10
2019-06-26T11:58:03.669Z,48.00
2019-06-26T12:03:07.611Z,48.10
2019-06-26T12:08:11.477Z,47.30
2019-06-26T12:13:15.448Z,49.40
2019-06-26T12:18:19.340Z,50.60
2019-06-26T12:23:23.117Z,50.20
2019-06-26T12:28:26.777Z,49.40
2019-06-26T12:33:30.424Z,48.60
2019-06-26T12:38:34.350Z,48.00
2019-06-26T12:43:38.031Z,48.40
2019-06-26T12:48:41.697Z,48.20
2019-06-26T12:53:45.413Z,47.30
2019-06-26T12:58:49.170Z,47.40
2019-06-26T13:03:53.086Z,46.80
2019-06-26T13:08:56.776Z,46.70
2019-06-26T13:14:03.064Z,47.20
2019-06-26T13:19:05.989Z,48.00
2019-06-26T13:24:09.674Z,48.10
2019-06-26T13:29:13.430Z,48.20
2019-06-26T13:34:17.351Z,47.80
2019-06-26T13:39:21.053Z,48.40
2019-06-26T13:44:24.801Z,46.90
2019-06-26T13:49:28.479Z,46.70
2019-06-26T13:54:32.193Z,46.20
2019-06-26T13:59:35.908Z,47.20
2019-06-26T14:04:39.597Z,47.10
2019-06-26T14:09:43.310Z,46.30
2019-06-26T14:14:57.215Z,46.10
2019-06-26T14:19:52.344Z,46.20
2019-06-26T14:24:56.049Z,46.20
2019-06-26T14:29:59.730Z,46.10
2019-06-26T14:35:03.834Z,46.00
2019-06-26T14:40:07.930Z,45.30
2019-06-26T14:45:12.070Z,45.40
2019-06-26T14:50:16.525Z,45.30
2019-06-26T14:55:20.743Z,45.40
2019-06-26T15:00:24.949Z,44.50
2019-06-26T15:05:28.589Z,45.20
2019-06-26T15:10:32.586Z,44.90
2019-06-26T15:15:36.281Z,44.30
2019-06-26T15:20:40.265Z,44.50
2019-06-26T15:25:44.018Z,43.70
2019-06-26T15:30:47.697Z,44.30
2019-06-26T15:35:51.634Z,44.70
2019-06-26T15:40:55.317Z,44.60
2019-06-26T15:45:59.220Z,44.30
2019-06-26T15:51:02.993Z,43.70
2019-06-26T15:56:06.780Z,44.20
2019-06-26T16:01:10.454Z,43.90
2019-06-26T16:06:14.259Z,43.40
2019-06-26T16:11:17.900Z,43.00
2019-06-26T16:16:22.146Z,42.70
2019-06-26T16:21:25.810Z,42.10
2019-06-26T16:26:29.522Z,42.30
2019-06-26T16:31:33.200Z,42.10
2019-06-26T16:36:36.929Z,42.30
2019-06-26T16:41:40.767Z,42.40
2019-06-26T16:46:44.578Z,42.50
2019-06-26T16:51:48.330Z,41.80
2019-06-26T16:56:52.156Z,41.30
2019-06-26T17:01:56.067Z,40.90
2019-06-26T17:06:59.922Z,40.80
2019-06-26T17:12:03.805Z,40.70
2019-06-26T17:17:07.563Z,40.60
2019-06-26T17:22:11.283Z,40.10
2019-06-26T17:27:15.271Z,39.80
2019-06-26T17:32:18.939Z,39.50
2019-06-26T17:37:22.602Z,39.50
2019-06-26T17:42:26.506Z,39.60
2019-06-26T17:47:30.759Z,39.50
2019-06-26T17:52:38.103Z,39.30
2019-06-26T17:57:40.198Z,39.00
2019-06-26T18:02:44.265Z,38.80
2019-06-26T18:07:48.029Z,38.40
2019-06-26T18:12:51.759Z,38.10
2019-06-26T18:17:55.590Z,37.90
2019-06-26T18:23:07.162Z,37.70
2019-06-26T18:28:05.098Z,37.30
2019-06-26T18:33:09.033Z,37.20
2019-06-26T18:38:12.805Z,37.00
2019-06-26T18:43:16.660Z,36.70
2019-06-26T18:48:20.388Z,36.30
2019-06-26T18:53:24.058Z,36.00
2019-06-26T18:58:30.762Z,35.70
2019-06-26T19:03:33.347Z,35.40
2019-06-26T19:08:37.149Z,35.30
2019-06-26T19:13:40.850Z,35.00
2019-06-26T19:18:44.567Z,34.80
2019-06-26T19:23:48.336Z,34.70
2019-06-26T19:28:52.057Z,34.40
2019-06-26T19:33:55.732Z,34.40
2019-06-26T19:38:59.674Z,34.10
2019-06-26T19:44:04.515Z,33.90
2019-06-26T19:49:08.302Z,33.70
2019-06-26T19:54:26.126Z,33.60
2019-06-26T19:59:17.409Z,33.40
2019-06-26T20:04:21.227Z,33.20
2019-06-26T20:09:24.914Z,33.20
2019-06-26T20:14:28.674Z,33.00
2019-06-26T20:19:32.361Z,32.80
2019-06-26T20:24:44.231Z,32.60
2019-06-26T20:29:41.898Z,32.50
2019-06-26T20:34:45.823Z,32.30
2019-06-26T20:39:50.049Z,32.30
2019-06-26T20:50:32.689Z,32.10
2019-06-26T20:55:36.384Z,31.90
2019-06-26T21:00:40.112Z,31.70
2019-06-26T21:05:43.786Z,31.50
2019-06-26T21:10:47.497Z,31.40
2019-06-26T21:15:53.051Z,31.40
2019-06-26T21:20:56.886Z,31.20
2019-06-26T21:26:00.853Z,31.00
2019-06-26T21:31:04.607Z,30.90
2019-06-26T21:36:08.406Z,30.70
2019-06-26T21:41:12.170Z,30.60
2019-06-26T21:46:15.970Z,30.70
2019-06-26T21:51:19.689Z,30.40
2019-06-26T21:56:23.419Z,30.30
2019-06-26T22:01:27.224Z,30.20
2019-06-26T22:06:31.996Z,30.20
2019-06-26T22:11:35.995Z,30.00
2019-06-26T22:16:40.524Z,29.90
2019-06-26T22:21:44.254Z,29.80
2019-06-26T22:26:48.324Z,29.70
2019-06-26T22:31:52.043Z,29.60
2019-06-26T22:36:55.767Z,29.40
2019-06-26T22:41:59.803Z,29.40
2019-06-26T22:47:03.775Z,29.30
2019-06-26T22:52:07.701Z,29.30
2019-06-26T22:57:11.930Z,29.10
2019-06-26T23:02:15.652Z,29.00
2019-06-26T23:07:19.374Z,28.90
2019-06-26T23:12:23.407Z,28.80
2019-06-26T23:17:27.733Z,28.80
2019-06-26T23:22:31.738Z,28.80
2019-06-26T23:27:35.431Z,28.60
2019-06-26T23:32:42.512Z,28.70
2019-06-26T23:37:46.397Z,28.70
2019-06-26T23:42:50.558Z,28.70
2019-06-26T23:47:54.301Z,28.60
2019-06-26T23:52:59.162Z,28.50
2019-06-26T23:58:05.918Z,28.40
